createdAt,value
2022-08-07T00:00:32.735Z,57.91
2022-08-07T00:01:43.781Z,56.99
2022-08-07T00:02:39.774Z,56.73
2022-08-07T00:03:36.581Z,56.81
2022-08-07T00:04:31.803Z,56.86
2022-08-07T00:05:31.692Z,57.15
2022-08-07T00:06:33.664Z,56.50
2022-08-07T00:07:40.562Z,56.46
2022-08-07T00:08:32.667Z,57.01
2022-08-07T00:09:35.573Z,57.05
2022-08-07T00:10:31.757Z,56.95
2022-08-07T00:11:33.293Z,56.80
2022-08-07T00:12:31.638Z,58.07
2022-08-07T00:13:31.640Z,56.76
2022-08-07T00:14:31.823Z,56.97
2022-08-07T00:15:36.034Z,56.68
2022-08-07T00:16:32.615Z,57.01
2022-08-07T00:17:35.318Z,56.83
2022-08-07T00:18:31.592Z,56.42
2022-08-07T00:19:59.686Z,56.88
2022-08-07T00:20:34.284Z,57.03
2022-08-07T00:21:56.352Z,56.55
2022-08-07T00:22:35.050Z,56.61
2022-08-07T00:23:31.560Z,56.83
2022-08-07T00:24:31.951Z,57.00
2022-08-07T00:25:37.398Z,57.15
2022-08-07T00:26:49.278Z,56.68
2022-08-07T00:27:51.852Z,56.87
2022-08-07T00:28:34.132Z,57.64
2022-08-07T00:29:32.095Z,56.76
2022-08-07T00:30:31.519Z,56.78
2022-08-07T00:31:37.921Z,57.08
2022-08-07T00:32:32.482Z,57.10
2022-08-07T00:33:32.930Z,57.10
2022-08-07T00:34:31.464Z,57.41
2022-08-07T00:35:31.476Z,57.18
2022-08-07T00:36:31.454Z,57.89
2022-08-07T00:37:47.722Z,57.48
2022-08-07T00:38:33.332Z,57.12
2022-08-07T00:39:31.497Z,57.22
2022-08-07T00:40:39.358Z,56.90
2022-08-07T00:41:32.423Z,57.36
2022-08-07T00:42:31.463Z,56.98
2022-08-07T00:44:01.046Z,56.80
2022-08-07T00:44:33.321Z,56.73
2022-08-07T00:45:31.409Z,56.72
2022-08-07T00:46:32.938Z,56.63
2022-08-07T00:48:09.702Z,56.77
2022-08-07T00:48:32.656Z,56.77
2022-08-07T00:50:20.738Z,58.27
2022-08-07T00:50:50.862Z,56.99
2022-08-07T00:51:58.481Z,56.97
2022-08-07T00:52:33.345Z,56.80
2022-08-07T00:53:39.101Z,56.83
2022-08-07T00:54:32.321Z,56.86
2022-08-07T00:56:02.313Z,56.83
2022-08-07T00:56:33.818Z,56.92
2022-08-07T00:57:34.148Z,56.85
2022-08-07T00:58:31.498Z,56.57
2022-08-07T00:59:35.467Z,57.66
2022-08-07T01:00:31.323Z,57.22
2022-08-07T01:01:41.486Z,56.87
2022-08-07T01:02:32.257Z,56.72
2022-08-07T01:03:56.252Z,57.07
2022-08-07T01:04:32.625Z,56.93
2022-08-07T01:05:31.252Z,56.87
2022-08-07T01:06:32.231Z,56.87
2022-08-07T01:07:31.546Z,56.71
2022-08-07T01:08:31.228Z,56.94
2022-08-07T01:10:04.817Z,57.10
2022-08-07T01:10:32.211Z,56.97
2022-08-07T01:12:09.035Z,56.82
2022-08-07T01:12:32.226Z,56.92
2022-08-07T01:13:35.054Z,56.65
2022-08-07T01:14:31.167Z,56.89
2022-08-07T01:16:00.610Z,56.46
2022-08-07T01:16:32.153Z,56.77
2022-08-07T01:17:31.148Z,56.97
2022-08-07T01:18:31.138Z,57.23
2022-08-07T01:19:32.203Z,56.83
2022-08-07T01:20:31.137Z,56.82
2022-08-07T01:21:31.114Z,56.64
2022-08-07T01:22:31.101Z,56.73
2022-08-07T01:23:36.848Z,56.78
2022-08-07T01:24:32.097Z,56.96
2022-08-07T01:25:54.810Z,56.97
2022-08-07T01:26:32.077Z,56.89
2022-08-07T01:27:32.527Z,56.83
2022-08-07T01:28:31.062Z,57.18
2022-08-07T01:29:31.431Z,56.90
2022-08-07T01:30:31.068Z,57.02
2022-08-07T01:31:42.332Z,56.89
2022-08-07T01:32:32.045Z,56.82
2022-08-07T01:33:55.955Z,56.84
2022-08-07T01:34:32.024Z,56.98
2022-08-07T01:35:53.198Z,57.00
2022-08-07T01:36:33.942Z,56.90
2022-08-07T01:37:30.989Z,56.90
2022-08-07T01:38:30.986Z,56.70
2022-08-07T01:39:40.735Z,56.73
2022-08-07T01:40:31.988Z,56.79
2022-08-07T01:41:30.962Z,56.90
2022-08-07T01:42:38.210Z,57.70
2022-08-07T01:43:38.143Z,56.88
2022-08-07T01:44:31.943Z,56.98
2022-08-07T01:45:37.241Z,57.92
2022-08-07T01:46:31.926Z,56.77
2022-08-07T01:48:27.350Z,56.96
2022-08-07T01:48:32.421Z,57.73
2022-08-07T01:49:31.871Z,57.06
2022-08-07T01:50:30.914Z,57.00
2022-08-07T01:52:01.134Z,57.28
2022-08-07T01:52:31.887Z,56.76
2022-08-07T01:54:08.482Z,56.80
2022-08-07T01:54:36.385Z,56.96
2022-08-07T01:55:30.875Z,56.96
2022-08-07T01:56:30.854Z,56.91
2022-08-07T01:57:30.861Z,56.73
2022-08-07T01:58:33.353Z,56.84
2022-08-07T01:59:31.632Z,56.93
2022-08-07T02:00:30.851Z,56.95
2022-08-07T02:02:02.446Z,56.86
2022-08-07T02:02:32.511Z,56.80
2022-08-07T02:03:42.755Z,56.93
2022-08-07T02:04:31.868Z,56.69
2022-08-07T02:05:43.313Z,56.62
2022-08-07T02:06:32.503Z,56.82
2022-08-07T02:07:36.242Z,56.88
2022-08-07T02:08:31.770Z,57.05
2022-08-07T02:09:51.690Z,57.22
2022-08-07T02:10:31.790Z,57.10
2022-08-07T02:12:02.862Z,57.17
2022-08-07T02:12:31.738Z,57.08
2022-08-07T02:13:58.245Z,57.09
2022-08-07T02:14:40.552Z,58.34
2022-08-07T02:15:31.715Z,57.18
2022-08-07T02:16:33.129Z,57.09
2022-08-07T02:17:34.025Z,57.10
2022-08-07T02:18:30.699Z,57.12
2022-08-07T02:20:07.817Z,57.05
2022-08-07T02:20:31.678Z,57.02
2022-08-07T02:21:55.193Z,57.27
2022-08-07T02:22:31.662Z,57.27
2022-08-07T02:23:30.652Z,57.53
2022-08-07T02:24:31.651Z,57.08
2022-08-07T02:26:10.142Z,57.03
2022-08-07T02:26:34.700Z,56.77
2022-08-07T02:27:34.380Z,57.18
2022-08-07T02:28:30.621Z,57.18
2022-08-07T02:29:30.662Z,57.37
2022-08-07T02:30:30.601Z,57.11
2022-08-07T02:31:30.613Z,57.02
2022-08-07T02:32:30.586Z,57.16
2022-08-07T02:33:42.084Z,57.99
2022-08-07T02:34:31.573Z,57.38
2022-08-07T02:36:30.728Z,57.13
2022-08-07T02:36:33.011Z,57.06
2022-08-07T02:37:35.913Z,57.07
2022-08-07T02:38:32.158Z,57.96
2022-08-07T02:39:43.906Z,56.99
2022-08-07T02:40:35.251Z,57.39
2022-08-07T02:41:33.637Z,56.99
2022-08-07T02:42:30.515Z,57.24
2022-08-07T02:43:30.502Z,57.35
2022-08-07T02:44:34.824Z,57.23
2022-08-07T02:46:00.434Z,57.39
2022-08-07T02:46:31.536Z,57.33
2022-08-07T02:47:45.161Z,57.36
2022-08-07T02:48:31.471Z,57.23
2022-08-07T02:49:58.312Z,57.14
2022-08-07T02:50:31.462Z,57.33
2022-08-07T02:51:49.648Z,57.22
2022-08-07T02:52:32.386Z,56.93
2022-08-07T02:53:30.432Z,57.18
2022-08-07T02:54:30.423Z,57.37
2022-08-07T02:56:03.014Z,57.73
2022-08-07T02:56:31.630Z,57.30
2022-08-07T02:57:31.048Z,57.26
2022-08-07T02:58:33.459Z,57.12
2022-08-07T02:59:30.393Z,57.14
2022-08-07T03:00:30.586Z,57.48
2022-08-07T03:01:35.946Z,57.29
2022-08-07T03:02:31.381Z,57.45
2022-08-07T03:03:49.143Z,57.37
2022-08-07T03:04:31.386Z,57.40
2022-08-07T03:05:35.990Z,57.20
2022-08-07T03:06:33.108Z,57.41
2022-08-07T03:08:04.601Z,57.44
2022-08-07T03:08:31.327Z,57.88
2022-08-07T03:09:41.825Z,58.02
2022-08-07T03:10:31.337Z,57.35
2022-08-07T03:11:32.934Z,57.37
2022-08-07T03:12:31.358Z,57.78
2022-08-07T03:13:30.290Z,57.39
2022-08-07T03:14:30.289Z,57.26
2022-08-07T03:15:47.831Z,58.16
2022-08-07T03:16:31.293Z,57.28
2022-08-07T03:17:30.442Z,58.62
2022-08-07T03:18:34.965Z,57.16
2022-08-07T03:19:36.892Z,57.79
2022-08-07T03:20:31.243Z,57.14
2022-08-07T03:21:33.199Z,57.21
2022-08-07T03:22:30.723Z,57.31
2022-08-07T03:23:33.904Z,58.27
2022-08-07T03:24:31.216Z,57.27
2022-08-07T03:25:32.505Z,59.19
2022-08-07T03:26:31.198Z,57.84
2022-08-07T03:27:42.128Z,57.30
2022-08-07T03:28:38.048Z,57.46
2022-08-07T03:29:30.175Z,57.39
2022-08-07T03:30:30.160Z,57.36
2022-08-07T03:31:43.433Z,57.54
2022-08-07T03:32:31.167Z,57.37
2022-08-07T03:33:32.246Z,57.02
2022-08-07T03:34:31.141Z,57.44
2022-08-07T03:35:43.876Z,57.49
2022-08-07T03:36:31.127Z,59.36
2022-08-07T03:37:30.156Z,57.47
2022-08-07T03:38:33.223Z,57.25
2022-08-07T03:39:56.594Z,57.45
2022-08-07T03:40:36.548Z,57.50
2022-08-07T03:41:42.328Z,57.32
2022-08-07T03:42:31.368Z,57.66
2022-08-07T03:43:32.126Z,58.14
2022-08-07T03:44:34.350Z,57.37
2022-08-07T03:45:31.502Z,57.49
2022-08-07T03:46:30.140Z,57.68
2022-08-07T03:47:47.896Z,57.54
2022-08-07T03:48:31.047Z,57.38
2022-08-07T03:49:30.054Z,58.60
2022-08-07T03:50:30.020Z,57.80
2022-08-07T03:51:30.845Z,57.41
2022-08-07T03:52:31.020Z,57.54
2022-08-07T03:54:00.691Z,57.60
2022-08-07T03:54:36.255Z,57.69
2022-08-07T03:55:53.139Z,57.69
2022-08-07T03:56:32.652Z,58.04
2022-08-07T03:58:32.891Z,57.64
2022-08-07T03:59:07.478Z,57.71
2022-08-07T03:59:30.948Z,57.54
2022-08-07T04:00:33.421Z,57.52
2022-08-07T04:01:30.007Z,57.56
2022-08-07T04:02:29.929Z,57.45
2022-08-07T04:03:49.719Z,58.63
2022-08-07T04:04:32.770Z,57.66
2022-08-07T04:05:40.983Z,58.01
2022-08-07T04:06:38.044Z,57.58
2022-08-07T04:07:36.192Z,57.56
2022-08-07T04:08:30.898Z,57.48
2022-08-07T04:09:44.644Z,57.43
2022-08-07T04:10:30.869Z,58.65
2022-08-07T04:12:25.455Z,57.65
2022-08-07T04:12:30.869Z,57.65
2022-08-07T04:13:29.845Z,57.51
2022-08-07T04:14:37.518Z,57.51
2022-08-07T04:15:30.835Z,57.34
2022-08-07T04:16:30.799Z,57.56
2022-08-07T04:18:31.115Z,57.46
2022-08-07T04:18:59.130Z,57.58
2022-08-07T04:19:51.140Z,57.63
2022-08-07T04:20:30.825Z,57.59
2022-08-07T04:21:31.875Z,57.55
2022-08-07T04:22:30.041Z,57.47
2022-08-07T04:23:43.600Z,57.78
2022-08-07T04:24:38.808Z,57.78
2022-08-07T04:25:30.754Z,57.56
2022-08-07T04:26:29.748Z,57.41
2022-08-07T04:27:35.684Z,57.54
2022-08-07T04:28:30.741Z,57.62
2022-08-07T04:29:40.328Z,57.56
2022-08-07T04:30:43.927Z,57.43
2022-08-07T04:31:39.043Z,57.49
2022-08-07T04:32:34.444Z,57.65
2022-08-07T04:33:29.695Z,57.56
2022-08-07T04:34:33.089Z,58.24
2022-08-07T04:35:35.171Z,57.48
2022-08-07T04:36:30.708Z,57.64
2022-08-07T04:37:29.682Z,57.30
2022-08-07T04:38:30.672Z,58.01
2022-08-07T04:39:35.606Z,57.68
2022-08-07T04:40:32.255Z,57.66
2022-08-07T04:41:29.641Z,58.06
2022-08-07T04:42:29.650Z,57.63
2022-08-07T04:44:13.142Z,57.85
2022-08-07T04:44:30.621Z,57.43
2022-08-07T04:46:00.295Z,58.15
2022-08-07T04:46:34.816Z,57.77
2022-08-07T04:47:58.893Z,57.63
2022-08-07T04:48:30.587Z,57.67
2022-08-07T04:49:29.571Z,57.68
2022-08-07T04:50:29.577Z,57.34
2022-08-07T04:51:29.588Z,57.63
2022-08-07T04:52:29.557Z,58.08
2022-08-07T04:54:01.691Z,58.55
2022-08-07T04:54:30.561Z,57.67
2022-08-07T04:58:15.140Z,57.52
2022-08-07T04:58:16.042Z,58.10
2022-08-07T04:58:16.149Z,58.65
2022-08-07T04:58:49.661Z,57.71
2022-08-07T05:00:10.703Z,57.58
2022-08-07T05:00:32.334Z,57.71
2022-08-07T05:01:30.051Z,57.83
2022-08-07T05:02:29.487Z,58.08
2022-08-07T05:04:00.519Z,57.49
2022-08-07T05:04:30.476Z,57.50
2022-08-07T05:05:53.344Z,57.70
2022-08-07T05:06:43.770Z,57.43
2022-08-07T05:07:36.803Z,57.66
2022-08-07T05:08:59.607Z,57.67
2022-08-07T05:09:45.938Z,57.59
2022-08-07T05:10:30.431Z,57.74
2022-08-07T05:11:57.987Z,58.89
2022-08-07T05:12:30.762Z,57.43
2022-08-07T05:14:54.448Z,57.47
2022-08-07T05:14:55.862Z,57.73
2022-08-07T05:15:30.392Z,59.11
2022-08-07T05:16:29.388Z,57.76
2022-08-07T05:17:52.803Z,57.67
2022-08-07T05:18:30.368Z,58.06
2022-08-07T05:19:32.629Z,57.87
2022-08-07T05:20:30.361Z,58.13
2022-08-07T05:21:59.864Z,57.75
2022-08-07T05:22:30.374Z,57.58
2022-08-07T05:23:30.932Z,58.04
2022-08-07T05:24:30.617Z,57.82
2022-08-07T05:25:54.429Z,58.15
2022-08-07T05:26:30.318Z,57.66
2022-08-07T05:28:02.553Z,57.65
2022-08-07T05:28:30.466Z,57.85
2022-08-07T05:29:48.053Z,58.16
2022-08-07T05:30:33.058Z,58.44
2022-08-07T05:31:35.384Z,59.02
2022-08-07T05:32:30.351Z,57.69
2022-08-07T05:33:29.280Z,57.52
2022-08-07T05:34:29.261Z,58.06
2022-08-07T05:35:33.831Z,58.03
2022-08-07T05:36:35.419Z,57.63
2022-08-07T05:37:30.587Z,58.05
2022-08-07T05:38:59.732Z,58.38
2022-08-07T05:40:06.424Z,58.18
2022-08-07T05:40:30.243Z,57.81
2022-08-07T05:42:02.322Z,57.77
2022-08-07T05:42:34.448Z,57.53
2022-08-07T05:43:50.091Z,57.61
2022-08-07T05:44:30.182Z,57.50
2022-08-07T05:45:47.278Z,57.66
2022-08-07T05:46:30.171Z,58.41
2022-08-07T05:48:00.021Z,57.63
2022-08-07T05:48:30.170Z,57.82
2022-08-07T05:49:40.718Z,57.53
2022-08-07T05:50:30.142Z,59.89
2022-08-07T05:51:31.722Z,57.53
2022-08-07T05:52:32.527Z,58.13
2022-08-07T05:54:13.643Z,58.06
2022-08-07T05:54:44.416Z,57.77
2022-08-07T05:56:02.325Z,57.54
2022-08-07T05:56:30.358Z,57.22
2022-08-07T05:57:30.199Z,56.97
2022-08-07T05:58:36.902Z,57.37
2022-08-07T05:59:29.075Z,57.23
2022-08-07T06:00:29.066Z,57.57
2022-08-07T06:01:34.938Z,57.48
2022-08-07T06:02:30.746Z,57.61
2022-08-07T06:03:53.711Z,57.17
2022-08-07T06:04:30.424Z,57.08
2022-08-07T06:05:29.035Z,57.09
2022-08-07T06:06:29.979Z,57.96
2022-08-07T06:08:13.790Z,57.03
2022-08-07T06:08:31.510Z,57.14
2022-08-07T06:10:04.488Z,56.85
2022-08-07T06:10:29.995Z,57.09
2022-08-07T06:11:28.983Z,57.08
2022-08-07T06:12:33.052Z,56.81
2022-08-07T06:14:10.915Z,56.82
2022-08-07T06:14:30.269Z,56.95
2022-08-07T06:15:39.292Z,56.82
2022-08-07T06:16:29.950Z,56.96
2022-08-07T06:17:31.926Z,57.31
2022-08-07T06:18:29.949Z,57.84
2022-08-07T06:19:52.253Z,56.51
2022-08-07T06:20:38.142Z,56.71
2022-08-07T06:22:16.875Z,57.09
2022-08-07T06:22:29.902Z,56.79
2022-08-07T06:24:37.691Z,56.43
2022-08-07T06:24:45.721Z,57.25
2022-08-07T06:25:34.790Z,58.73
2022-08-07T06:26:29.875Z,56.40
2022-08-07T06:27:59.946Z,58.79
2022-08-07T06:28:29.873Z,57.06
2022-08-07T06:29:28.853Z,56.18
2022-08-07T06:30:35.628Z,56.16
2022-08-07T06:31:38.378Z,56.20
2022-08-07T06:32:29.836Z,55.98
2022-08-07T06:33:29.549Z,56.56
2022-08-07T06:34:30.413Z,57.07
2022-08-07T06:35:39.014Z,57.55
2022-08-07T06:36:35.239Z,57.76
2022-08-07T06:37:43.434Z,56.01
2022-08-07T06:38:30.337Z,56.74
2022-08-07T06:40:16.392Z,57.80
2022-08-07T06:40:34.261Z,56.55
2022-08-07T06:42:01.655Z,55.31
2022-08-07T06:42:33.115Z,56.47
2022-08-07T06:43:35.947Z,55.92
2022-08-07T06:44:33.907Z,58.25
2022-08-07T06:45:28.730Z,55.79
2022-08-07T06:46:31.528Z,55.70
2022-08-07T06:47:28.907Z,55.74
2022-08-07T06:48:29.723Z,58.73
2022-08-07T06:49:28.700Z,55.24
2022-08-07T06:50:30.481Z,56.40
2022-08-07T06:51:33.507Z,56.48
2022-08-07T06:52:31.727Z,55.37
2022-08-07T06:54:12.016Z,55.16
2022-08-07T06:55:32.011Z,54.62
2022-08-07T06:55:48.047Z,56.25
2022-08-07T06:56:29.659Z,55.22
2022-08-07T06:57:28.650Z,55.28
2022-08-07T06:58:29.653Z,55.80
2022-08-07T07:00:14.775Z,54.06
2022-08-07T07:00:30.393Z,56.42
2022-08-07T07:01:33.252Z,54.01
2022-08-07T07:02:53.570Z,54.55
2022-08-07T07:03:47.632Z,53.60
2022-08-07T07:04:33.236Z,54.26
2022-08-07T07:06:04.893Z,55.88
2022-08-07T07:06:29.574Z,55.96
2022-08-07T07:08:00.330Z,53.69
2022-08-07T07:08:29.840Z,53.12
2022-08-07T07:09:31.352Z,53.62
2022-08-07T07:10:28.583Z,53.98
2022-08-07T07:12:08.692Z,52.62
2022-08-07T07:12:33.439Z,52.87
2022-08-07T07:13:56.330Z,52.17
2022-08-07T07:14:29.528Z,53.53
2022-08-07T07:15:32.554Z,51.93
2022-08-07T07:16:30.254Z,52.69
2022-08-07T07:17:38.663Z,53.29
2022-08-07T07:18:47.164Z,51.70
2022-08-07T07:19:55.149Z,51.70
2022-08-07T07:20:29.472Z,51.70
2022-08-07T07:21:40.389Z,52.31
2022-08-07T07:22:35.955Z,52.57
2022-08-07T07:24:10.384Z,51.59
2022-08-07T07:24:29.446Z,52.10
2022-08-07T07:26:32.140Z,51.20
2022-08-07T07:26:32.620Z,52.28
2022-08-07T07:27:35.571Z,52.99
2022-08-07T07:28:42.077Z,52.54
2022-08-07T07:29:56.491Z,54.82
2022-08-07T07:30:37.832Z,53.45
2022-08-07T07:31:30.337Z,53.07
2022-08-07T07:32:29.382Z,50.83
2022-08-07T07:33:28.411Z,54.25
2022-08-07T07:34:30.894Z,52.85
2022-08-07T07:35:28.362Z,52.67
2022-08-07T07:36:32.613Z,51.73
2022-08-07T07:37:47.488Z,49.77
2022-08-07T07:38:29.573Z,49.26
2022-08-07T07:39:35.892Z,51.36
2022-08-07T07:40:29.326Z,53.00
2022-08-07T07:41:30.782Z,49.62
2022-08-07T07:42:32.909Z,53.61
2022-08-07T07:44:14.041Z,50.53
2022-08-07T07:44:29.295Z,50.98
2022-08-07T07:46:36.484Z,52.09
2022-08-07T07:46:40.314Z,50.13
2022-08-07T07:47:29.288Z,49.87
2022-08-07T07:48:34.999Z,50.00
2022-08-07T07:50:32.840Z,51.40
2022-08-07T07:50:36.255Z,51.43
2022-08-07T07:51:28.244Z,52.60
2022-08-07T07:52:28.437Z,52.01
2022-08-07T07:53:28.239Z,49.65
2022-08-07T07:54:29.212Z,49.81
2022-08-07T07:55:37.812Z,51.75
2022-08-07T07:56:29.978Z,52.45
2022-08-07T07:57:50.465Z,50.70
2022-08-07T07:58:29.195Z,50.42
2022-08-07T07:59:52.463Z,49.48
2022-08-07T08:00:34.230Z,48.29
2022-08-07T08:02:02.047Z,49.57
2022-08-07T08:02:35.707Z,50.69
2022-08-07T08:04:05.776Z,51.49
2022-08-07T08:04:29.188Z,50.60
2022-08-07T08:05:42.796Z,52.67
2022-08-07T08:06:29.127Z,48.67
2022-08-07T08:07:35.869Z,50.43
2022-08-07T08:08:34.790Z,48.91
2022-08-07T08:09:29.865Z,50.90
2022-08-07T08:10:35.572Z,48.84
2022-08-07T08:11:59.447Z,48.74
2022-08-07T08:12:52.033Z,45.38
2022-08-07T08:13:36.687Z,48.57
2022-08-07T08:14:29.073Z,46.23
2022-08-07T08:15:28.068Z,51.34
2022-08-07T08:16:30.034Z,47.60
2022-08-07T08:17:56.564Z,47.81
2022-08-07T08:18:29.032Z,48.93
2022-08-07T08:20:17.029Z,48.11
2022-08-07T08:20:32.112Z,46.84
2022-08-07T08:22:02.624Z,46.78
2022-08-07T08:22:32.657Z,45.30
2022-08-07T08:23:28.149Z,47.09
2022-08-07T08:24:36.591Z,45.41
2022-08-07T08:25:42.785Z,52.11
2022-08-07T08:26:28.970Z,46.14
2022-08-07T08:27:33.681Z,48.51
2022-08-07T08:28:37.732Z,49.37
2022-08-07T08:29:28.033Z,48.34
2022-08-07T08:30:27.957Z,46.93
2022-08-07T08:31:59.038Z,47.29
2022-08-07T08:32:39.513Z,46.38
2022-08-07T08:33:33.018Z,45.14
2022-08-07T08:34:29.175Z,48.68
2022-08-07T08:35:28.919Z,46.20
2022-08-07T08:36:29.973Z,46.11
2022-08-07T08:38:00.466Z,45.86
2022-08-07T08:38:29.911Z,48.10
2022-08-07T08:39:39.635Z,46.69
2022-08-07T08:40:29.047Z,42.12
2022-08-07T08:41:31.435Z,46.08
2022-08-07T08:42:28.854Z,46.31
2022-08-07T08:43:41.790Z,47.06
2022-08-07T08:44:29.333Z,48.63
2022-08-07T08:45:41.897Z,50.07
2022-08-07T08:46:28.824Z,47.23
2022-08-07T08:47:27.989Z,44.71
2022-08-07T08:48:32.452Z,43.09
2022-08-07T08:49:33.432Z,47.12
2022-08-07T08:50:35.386Z,43.17
2022-08-07T08:52:00.770Z,43.41
2022-08-07T08:52:32.167Z,46.03
2022-08-07T08:53:29.286Z,46.44
2022-08-07T08:54:27.798Z,43.61
2022-08-07T08:55:54.935Z,39.79
2022-08-07T08:56:28.759Z,43.20
2022-08-07T08:57:30.117Z,44.10
2022-08-07T08:58:28.903Z,44.43
2022-08-07T08:59:27.791Z,41.88
2022-08-07T09:00:28.637Z,46.67
2022-08-07T09:01:29.625Z,43.78
2022-08-07T09:02:34.784Z,48.99
2022-08-07T09:03:49.474Z,41.84
2022-08-07T09:04:30.170Z,42.98
2022-08-07T09:05:37.294Z,45.75
2022-08-07T09:06:28.687Z,40.97
2022-08-07T09:07:28.001Z,42.58
2022-08-07T09:08:28.979Z,44.41
2022-08-07T09:09:30.283Z,44.76
2022-08-07T09:10:27.682Z,46.53
2022-08-07T09:11:50.814Z,43.59
2022-08-07T09:12:31.891Z,42.00
2022-08-07T09:13:35.325Z,42.87
2022-08-07T09:14:29.683Z,51.48
2022-08-07T09:16:20.645Z,51.56
2022-08-07T09:16:29.806Z,46.02
2022-08-07T09:17:33.946Z,49.17
2022-08-07T09:18:28.634Z,45.51
2022-08-07T09:19:51.047Z,41.95
2022-08-07T09:20:35.306Z,43.61
2022-08-07T09:21:58.070Z,40.77
2022-08-07T09:24:32.368Z,44.74
2022-08-07T09:24:34.081Z,37.63
2022-08-07T09:24:55.125Z,45.94
2022-08-07T09:25:28.567Z,42.63
2022-08-07T09:26:27.568Z,43.50
2022-08-07T09:27:27.820Z,45.33
2022-08-07T09:30:01.698Z,45.51
2022-08-07T09:30:03.417Z,36.66
2022-08-07T09:30:28.540Z,35.86
2022-08-07T09:31:27.531Z,41.16
2022-08-07T09:32:28.521Z,37.74
2022-08-07T09:33:52.442Z,41.25
2022-08-07T09:34:28.523Z,36.84
2022-08-07T09:36:05.295Z,45.71
2022-08-07T09:36:31.181Z,41.15
2022-08-07T09:37:47.793Z,39.20
2022-08-07T09:38:28.528Z,38.46
2022-08-07T09:39:54.627Z,47.45
2022-08-07T09:40:28.523Z,47.55
2022-08-07T09:41:27.791Z,46.08
2022-08-07T09:42:33.003Z,35.72
2022-08-07T09:44:03.493Z,37.84
2022-08-07T09:44:46.528Z,45.90
2022-08-07T09:47:37.226Z,36.13
2022-08-07T09:47:52.607Z,39.88
2022-08-07T09:48:00.907Z,47.53
2022-08-07T09:48:29.695Z,40.87
2022-08-07T09:50:02.932Z,42.71
2022-08-07T09:50:30.193Z,44.89
2022-08-07T09:52:09.787Z,49.02
2022-08-07T09:52:33.791Z,45.55
2022-08-07T09:53:41.373Z,45.31
2022-08-07T09:54:28.443Z,39.83
2022-08-07T09:55:36.922Z,42.16
2022-08-07T09:56:37.668Z,38.93
2022-08-07T09:57:28.668Z,43.85
2022-08-07T09:58:32.155Z,43.40
2022-08-07T09:59:35.653Z,43.23
2022-08-07T10:00:29.943Z,43.17
2022-08-07T10:01:51.100Z,43.88
2022-08-07T10:02:29.536Z,37.35
2022-08-07T10:04:05.603Z,46.56
2022-08-07T10:04:32.558Z,37.30
2022-08-07T10:05:58.205Z,45.70
2022-08-07T10:06:28.386Z,46.98
2022-08-07T10:07:31.615Z,46.05
2022-08-07T10:08:27.360Z,49.83
2022-08-07T10:09:42.958Z,47.25
2022-08-07T10:10:28.361Z,46.95
2022-08-07T10:11:59.802Z,46.28
2022-08-07T10:12:28.484Z,47.94
2022-08-07T10:13:55.518Z,45.86
2022-08-07T10:14:31.337Z,44.41
2022-08-07T10:15:27.290Z,46.21
2022-08-07T10:16:27.282Z,44.23
2022-08-07T10:17:30.969Z,44.20
2022-08-07T10:18:28.265Z,43.30
2022-08-07T10:19:27.277Z,43.97
2022-08-07T10:20:30.404Z,44.21
2022-08-07T10:22:12.157Z,40.88
2022-08-07T10:22:33.349Z,43.35
2022-08-07T10:24:05.312Z,46.93
2022-08-07T10:24:28.284Z,39.67
2022-08-07T10:25:42.489Z,44.62
2022-08-07T10:26:28.229Z,48.45
2022-08-07T10:27:29.989Z,46.99
2022-08-07T10:28:28.227Z,46.54
2022-08-07T10:29:30.384Z,48.11
2022-08-07T10:30:27.222Z,46.31
2022-08-07T10:31:27.209Z,45.01
2022-08-07T10:32:51.301Z,46.72
2022-08-07T10:34:15.609Z,45.39
2022-08-07T10:34:32.347Z,41.93
2022-08-07T10:35:27.208Z,47.77
2022-08-07T10:36:29.752Z,50.16
2022-08-07T10:38:00.065Z,47.24
2022-08-07T10:38:35.923Z,48.06
2022-08-07T10:39:41.475Z,47.74
2022-08-07T10:40:30.374Z,51.14
2022-08-07T10:41:51.609Z,49.35
2022-08-07T10:42:34.283Z,54.14
2022-08-07T10:43:29.861Z,48.00
2022-08-07T10:44:33.742Z,47.85
2022-08-07T10:45:48.016Z,45.08
2022-08-07T10:46:28.141Z,47.35
2022-08-07T10:47:50.570Z,46.46
2022-08-07T10:48:34.580Z,47.21
2022-08-07T10:49:49.269Z,49.68
2022-08-07T10:50:28.133Z,47.69
2022-08-07T10:51:57.662Z,48.40
2022-08-07T10:52:31.695Z,49.52
2022-08-07T10:53:28.102Z,46.87
2022-08-07T10:54:28.104Z,47.60
2022-08-07T10:55:38.174Z,49.83
2022-08-07T10:56:31.060Z,40.36
2022-08-07T10:57:34.423Z,47.01
2022-08-07T10:58:33.352Z,51.37
2022-08-07T10:59:30.212Z,41.17
2022-08-07T11:00:36.468Z,42.04
2022-08-07T11:01:35.378Z,41.80
2022-08-07T11:02:34.176Z,49.30
2022-08-07T11:03:37.340Z,49.53
2022-08-07T11:04:34.488Z,44.77
2022-08-07T11:05:35.833Z,45.27
2022-08-07T11:06:28.049Z,39.05
2022-08-07T11:08:00.504Z,40.10
2022-08-07T11:08:30.296Z,45.14
2022-08-07T11:10:09.132Z,41.90
2022-08-07T11:10:28.048Z,42.51
2022-08-07T11:11:27.087Z,43.05
2022-08-07T11:12:31.588Z,40.85
2022-08-07T11:14:44.399Z,43.65
2022-08-07T11:14:57.311Z,43.94
2022-08-07T11:15:31.842Z,36.52
2022-08-07T11:16:30.562Z,41.17
2022-08-07T11:17:45.118Z,37.98
2022-08-07T11:18:28.020Z,36.12
2022-08-07T11:19:27.454Z,43.45
2022-08-07T11:20:27.007Z,35.97
2022-08-07T11:21:26.974Z,41.93
2022-08-07T11:22:36.143Z,46.25
2022-08-07T11:23:36.362Z,38.13
2022-08-07T11:24:27.974Z,48.75
2022-08-07T11:25:26.981Z,43.67
2022-08-07T11:26:26.992Z,41.53
2022-08-07T11:28:00.812Z,40.82
2022-08-07T11:28:27.965Z,43.28
2022-08-07T11:29:40.855Z,40.88
2022-08-07T11:30:42.028Z,37.72
2022-08-07T11:31:27.945Z,40.39
2022-08-07T11:32:26.936Z,45.33
2022-08-07T11:33:58.356Z,42.36
2022-08-07T11:34:27.932Z,40.52
2022-08-07T11:35:27.148Z,38.37
2022-08-07T11:36:30.959Z,43.31
2022-08-07T11:37:38.638Z,44.97
2022-08-07T11:38:28.338Z,39.78
2022-08-07T11:39:39.579Z,38.36
2022-08-07T11:40:27.961Z,39.72
2022-08-07T11:41:31.099Z,42.15
2022-08-07T11:42:27.909Z,40.72
2022-08-07T11:43:41.726Z,40.65
2022-08-07T11:44:27.944Z,43.99
2022-08-07T11:45:35.516Z,42.11
2022-08-07T11:46:26.887Z,40.11
2022-08-07T11:47:27.211Z,39.88
2022-08-07T11:48:29.605Z,48.29
2022-08-07T11:49:50.582Z,46.65
2022-08-07T11:50:32.714Z,44.52
2022-08-07T11:51:44.867Z,42.53
2022-08-07T11:52:29.423Z,43.98
2022-08-07T11:53:26.856Z,46.41
2022-08-07T11:54:26.860Z,38.38
2022-08-07T11:56:25.528Z,39.65
2022-08-07T11:56:28.778Z,41.72
2022-08-07T11:57:58.031Z,41.43
2022-08-07T11:58:33.416Z,41.02
2022-08-07T12:00:10.988Z,44.57
2022-08-07T12:00:28.613Z,38.80
2022-08-07T12:01:26.819Z,38.31
2022-08-07T12:02:30.774Z,42.77
2022-08-07T12:03:45.265Z,40.75
2022-08-07T12:04:27.889Z,43.41
2022-08-07T12:05:28.645Z,45.09
2022-08-07T12:06:37.774Z,45.66
2022-08-07T12:07:39.128Z,41.65
2022-08-07T12:08:31.716Z,39.17
2022-08-07T12:09:26.784Z,39.80
2022-08-07T12:10:26.797Z,41.68
2022-08-07T12:11:32.447Z,43.60
2022-08-07T12:12:27.859Z,38.77
2022-08-07T12:13:35.506Z,44.38
2022-08-07T12:14:27.772Z,41.91
2022-08-07T12:15:46.200Z,38.34
2022-08-07T12:16:30.636Z,42.11
2022-08-07T12:17:26.757Z,39.00
2022-08-07T12:18:29.522Z,41.38
2022-08-07T12:19:35.387Z,36.42
2022-08-07T12:20:30.872Z,48.95
2022-08-07T12:21:55.892Z,40.71
2022-08-07T12:22:37.934Z,36.26
2022-08-07T12:24:05.538Z,43.57
2022-08-07T12:24:38.014Z,40.02
2022-08-07T12:26:03.249Z,37.47
2022-08-07T12:26:30.920Z,43.53
2022-08-07T12:28:09.860Z,46.03
2022-08-07T12:28:31.195Z,49.61
2022-08-07T12:29:37.764Z,44.30
2022-08-07T12:30:27.755Z,43.82
2022-08-07T12:31:26.705Z,40.36
2022-08-07T12:32:27.719Z,46.52
2022-08-07T12:33:30.824Z,41.23
2022-08-07T12:34:27.715Z,39.11
2022-08-07T12:35:26.817Z,45.81
2022-08-07T12:36:33.541Z,41.79
2022-08-07T12:38:11.573Z,45.19
2022-08-07T12:38:36.718Z,40.56
2022-08-07T12:39:43.328Z,44.58
2022-08-07T12:40:47.569Z,45.21
2022-08-07T12:41:29.081Z,43.54
2022-08-07T12:42:28.560Z,47.56
2022-08-07T12:44:01.850Z,44.51
2022-08-07T12:44:27.696Z,42.45
2022-08-07T12:45:26.702Z,39.48
2022-08-07T12:46:32.333Z,45.17
2022-08-07T12:47:30.605Z,43.53
2022-08-07T12:48:27.812Z,42.44
2022-08-07T12:49:44.238Z,41.00
2022-08-07T12:50:34.358Z,43.17
2022-08-07T12:51:46.635Z,42.02
2022-08-07T12:52:28.585Z,42.68